Accueil
METAR-TAF:

METAR-TAF

Aéroports :

Akulivik, Québec, Canada

latitude: 60-49N, longitude: 078-09W, altitude: 20 m

Observation

Le bulletin a été fait il y a 14 heures et 47 minutes, à 22:00 UTC
Vent 13 kt de sud-est
Température -34°C
Humidité 67%
Pression 1012 hPa
Visibilité: 9.7 km
Nuages épars à une hauteur de 22000 ft
neige faible

METAR: CYKO 172200Z 14013KT 6SM -SN SCT220 M34/M38 A2987 RMK CI4 LAST OB NEXT - 181300 UTC SLP120

Heure: 07:47 (12:47 UTC)


TAF: absent

Observations et prévisions météorologiques de plus de 4000 aéroports (messages METAR et TAF).

Les stations disponibles sont représentées par des disques jaunes et rouges sur la carte.

Passer la souris dessus pour voir le nom de la station.

Cliquer dessus pour voir les observations et prévisions météorologiques.

Pour changer de carte: cliquez sur les boutons verts avec une croix noire pour zoomer, sur le bouton vert avec un tiret pour effectuer un zoom arrière, ou sur les flèches vertes pour les cartes adjacentes.


METAR-TAF: